sensor_id;sensor_type;location;lat;lon;timestamp;P1;durP1;ratioP1;P2;durP2;ratioP2
7045;SDS011;3564;53.326;10.356;2022-09-25T00:00:47;19.77;;;16.60;;
7045;SDS011;3564;53.326;10.356;2022-09-25T00:03:14;20.90;;;15.50;;
7045;SDS011;3564;53.326;10.356;2022-09-25T00:05:41;17.37;;;14.30;;
7045;SDS011;3564;53.326;10.356;2022-09-25T00:08:09;19.87;;;15.50;;
7045;SDS011;3564;53.326;10.356;2022-09-25T00:10:39;19.17;;;15.63;;
7045;SDS011;3564;53.326;10.356;2022-09-25T00:13:05;21.40;;;16.60;;
7045;SDS011;3564;53.326;10.356;2022-09-25T00:15:31;22.37;;;16.87;;
7045;SDS011;3564;53.326;10.356;2022-09-25T00:17:57;20.83;;;16.70;;
7045;SDS011;3564;53.326;10.356;2022-09-25T00:20:22;25.47;;;16.73;;
7045;SDS011;3564;53.326;10.356;2022-09-25T00:22:48;20.50;;;16.77;;
7045;SDS011;3564;53.326;10.356;2022-09-25T00:25:14;27.03;;;17.83;;
7045;SDS011;3564;53.326;10.356;2022-09-25T00:27:41;23.00;;;17.13;;
7045;SDS011;3564;53.326;10.356;2022-09-25T00:30:10;21.87;;;17.57;;
7045;SDS011;3564;53.326;10.356;2022-09-25T00:32:37;24.73;;;18.17;;
7045;SDS011;3564;53.326;10.356;2022-09-25T00:35:02;23.67;;;17.60;;
7045;SDS011;3564;53.326;10.356;2022-09-25T00:37:29;22.47;;;17.50;;
7045;SDS011;3564;53.326;10.356;2022-09-25T00:39:57;22.57;;;17.73;;
7045;SDS011;3564;53.326;10.356;2022-09-25T00:42:23;22.53;;;18.57;;
7045;SDS011;3564;53.326;10.356;2022-09-25T00:47:39;23.93;;;18.40;;
7045;SDS011;3564;53.326;10.356;2022-09-25T00:52:55;22.80;;;18.77;;
7045;SDS011;3564;53.326;10.356;2022-09-25T00:55:28;23.10;;;17.70;;
7045;SDS011;3564;53.326;10.356;2022-09-25T00:57:55;23.83;;;18.50;;
7045;SDS011;3564;53.326;10.356;2022-09-25T01:00:23;24.77;;;18.10;;
7045;SDS011;3564;53.326;10.356;2022-09-25T01:02:52;22.43;;;17.77;;
7045;SDS011;3564;53.326;10.356;2022-09-25T01:05:20;24.10;;;18.47;;
7045;SDS011;3564;53.326;10.356;2022-09-25T01:07:54;20.37;;;16.97;;
7045;SDS011;3564;53.326;10.356;2022-09-25T01:10:23;21.67;;;17.50;;
7045;SDS011;3564;53.326;10.356;2022-09-25T01:12:49;21.83;;;18.07;;
7045;SDS011;3564;53.326;10.356;2022-09-25T01:15:19;20.50;;;16.50;;
7045;SDS011;3564;53.326;10.356;2022-09-25T01:32:14;34.13;;;20.40;;
7045;SDS011;3564;53.326;10.356;2022-09-25T01:43:10;31.20;;;19.50;;
7045;SDS011;3564;53.326;10.356;2022-09-25T01:46:04;29.13;;;19.33;;
7045;SDS011;3564;53.326;10.356;2022-09-25T01:48:49;32.80;;;19.40;;
7045;SDS011;3564;53.326;10.356;2022-09-25T01:51:20;28.17;;;18.83;;
7045;SDS011;3564;53.326;10.356;2022-09-25T01:53:51;32.63;;;19.03;;
7045;SDS011;3564;53.326;10.356;2022-09-25T01:56:30;30.47;;;18.93;;
7045;SDS011;3564;53.326;10.356;2022-09-25T01:59:09;30.20;;;19.23;;
7045;SDS011;3564;53.326;10.356;2022-09-25T02:01:57;29.87;;;19.40;;
7045;SDS011;3564;53.326;10.356;2022-09-25T02:04:27;26.57;;;17.23;;
7045;SDS011;3564;53.326;10.356;2022-09-25T02:06:59;22.87;;;16.93;;
7045;SDS011;3564;53.326;10.356;2022-09-25T02:09:31;22.70;;;17.07;;
7045;SDS011;3564;53.326;10.356;2022-09-25T02:12:07;22.93;;;16.87;;
7045;SDS011;3564;53.326;10.356;2022-09-25T02:14:39;20.23;;;15.63;;
7045;SDS011;3564;53.326;10.356;2022-09-25T02:17:11;20.90;;;15.70;;
7045;SDS011;3564;53.326;10.356;2022-09-25T02:20:02;19.10;;;15.17;;
7045;SDS011;3564;53.326;10.356;2022-09-25T02:22:47;19.93;;;15.23;;
7045;SDS011;3564;53.326;10.356;2022-09-25T02:25:19;18.60;;;14.90;;
7045;SDS011;3564;53.326;10.356;2022-09-25T02:27:51;22.33;;;15.67;;
7045;SDS011;3564;53.326;10.356;2022-09-25T02:30:17;23.00;;;15.53;;
7045;SDS011;3564;53.326;10.356;2022-09-25T02:32:43;17.80;;;14.70;;
7045;SDS011;3564;53.326;10.356;2022-09-25T02:35:09;17.73;;;14.47;;
7045;SDS011;3564;53.326;10.356;2022-09-25T02:37:34;18.90;;;14.37;;
7045;SDS011;3564;53.326;10.356;2022-09-25T02:40:01;19.77;;;14.77;;
7045;SDS011;3564;53.326;10.356;2022-09-25T02:48:13;19.47;;;15.07;;
7045;SDS011;3564;53.326;10.356;2022-09-25T02:53:56;21.43;;;15.50;;
7045;SDS011;3564;53.326;10.356;2022-09-25T02:56:33;21.63;;;15.87;;
7045;SDS011;3564;53.326;10.356;2022-09-25T02:59:17;18.83;;;14.97;;
7045;SDS011;3564;53.326;10.356;2022-09-25T03:01:51;18.37;;;14.53;;
7045;SDS011;3564;53.326;10.356;2022-09-25T03:04:18;20.87;;;15.60;;
7045;SDS011;3564;53.326;10.356;2022-09-25T03:06:45;19.20;;;15.30;;
7045;SDS011;3564;53.326;10.356;2022-09-25T03:09:11;19.10;;;15.33;;
7045;SDS011;3564;53.326;10.356;2022-09-25T03:12:00;19.17;;;14.60;;
7045;SDS011;3564;53.326;10.356;2022-09-25T03:14:27;18.07;;;15.00;;
7045;SDS011;3564;53.326;10.356;2022-09-25T03:16:53;18.17;;;14.60;;
7045;SDS011;3564;53.326;10.356;2022-09-25T03:19:21;19.00;;;15.57;;
7045;SDS011;3564;53.326;10.356;2022-09-25T03:22:06;18.53;;;14.70;;
7045;SDS011;3564;53.326;10.356;2022-09-25T03:24:32;20.60;;;15.23;;
7045;SDS011;3564;53.326;10.356;2022-09-25T03:26:58;21.40;;;16.17;;
7045;SDS011;3564;53.326;10.356;2022-09-25T03:29:24;17.47;;;15.37;;
7045;SDS011;3564;53.326;10.356;2022-09-25T03:31:51;18.90;;;15.43;;
7045;SDS011;3564;53.326;10.356;2022-09-25T03:34:17;23.97;;;16.27;;
7045;SDS011;3564;53.326;10.356;2022-09-25T03:37:03;20.80;;;15.03;;
7045;SDS011;3564;53.326;10.356;2022-09-25T03:39:28;19.50;;;14.93;;
7045;SDS011;3564;53.326;10.356;2022-09-25T03:41:54;21.43;;;15.80;;
7045;SDS011;3564;53.326;10.356;2022-09-25T03:44:19;20.67;;;15.07;;
7045;SDS011;3564;53.326;10.356;2022-09-25T03:46:45;21.80;;;16.53;;
7045;SDS011;3564;53.326;10.356;2022-09-25T03:49:10;22.60;;;16.17;;
7045;SDS011;3564;53.326;10.356;2022-09-25T03:51:36;21.80;;;16.67;;
7045;SDS011;3564;53.326;10.356;2022-09-25T03:54:02;22.13;;;16.17;;
7045;SDS011;3564;53.326;10.356;2022-09-25T03:56:28;21.37;;;16.13;;
7045;SDS011;3564;53.326;10.356;2022-09-25T03:58:54;24.27;;;16.20;;
7045;SDS011;3564;53.326;10.356;2022-09-25T04:01:20;22.93;;;16.83;;
7045;SDS011;3564;53.326;10.356;2022-09-25T04:03:48;22.90;;;15.80;;
7045;SDS011;3564;53.326;10.356;2022-09-25T04:06:17;22.67;;;16.33;;
7045;SDS011;3564;53.326;10.356;2022-09-25T04:08:45;20.50;;;15.23;;
7045;SDS011;3564;53.326;10.356;2022-09-25T04:11:12;23.40;;;16.27;;
7045;SDS011;3564;53.326;10.356;2022-09-25T04:13:39;24.40;;;17.33;;
7045;SDS011;3564;53.326;10.356;2022-09-25T04:16:06;22.97;;;15.53;;
7045;SDS011;3564;53.326;10.356;2022-09-25T04:18:32;21.27;;;15.13;;
7045;SDS011;3564;53.326;10.356;2022-09-25T04:20:58;23.47;;;15.37;;
7045;SDS011;3564;53.326;10.356;2022-09-25T04:23:25;23.00;;;15.70;;
7045;SDS011;3564;53.326;10.356;2022-09-25T04:25:51;26.63;;;15.70;;
7045;SDS011;3564;53.326;10.356;2022-09-25T04:28:18;22.43;;;15.37;;
7045;SDS011;3564;53.326;10.356;2022-09-25T04:30:44;24.67;;;15.43;;
7045;SDS011;3564;53.326;10.356;2022-09-25T04:33:09;25.80;;;16.97;;
7045;SDS011;3564;53.326;10.356;2022-09-25T04:35:54;25.37;;;16.47;;
7045;SDS011;3564;53.326;10.356;2022-09-25T04:38:21;26.20;;;16.47;;
7045;SDS011;3564;53.326;10.356;2022-09-25T04:40:46;29.93;;;16.67;;
7045;SDS011;3564;53.326;10.356;2022-09-25T04:43:12;30.87;;;17.47;;
7045;SDS011;3564;53.326;10.356;2022-09-25T04:45:38;28.60;;;16.77;;
7045;SDS011;3564;53.326;10.356;2022-09-25T04:48:04;28.20;;;16.77;;
7045;SDS011;3564;53.326;10.356;2022-09-25T04:50:30;27.50;;;16.37;;
7045;SDS011;3564;53.326;10.356;2022-09-25T04:52:56;31.23;;;17.67;;
7045;SDS011;3564;53.326;10.356;2022-09-25T04:55:22;35.33;;;17.73;;
7045;SDS011;3564;53.326;10.356;2022-09-25T04:57:52;31.10;;;17.73;;
7045;SDS011;3564;53.326;10.356;2022-09-25T05:00:20;31.53;;;17.17;;
7045;SDS011;3564;53.326;10.356;2022-09-25T05:02:48;31.17;;;16.97;;
7045;SDS011;3564;53.326;10.356;2022-09-25T05:05:14;32.50;;;17.57;;
7045;SDS011;3564;53.326;10.356;2022-09-25T05:07:57;32.80;;;18.23;;
7045;SDS011;3564;53.326;10.356;2022-09-25T05:10:26;34.03;;;18.07;;
7045;SDS011;3564;53.326;10.356;2022-09-25T05:12:53;29.57;;;17.23;;
7045;SDS011;3564;53.326;10.356;2022-09-25T05:15:24;31.10;;;17.97;;
7045;SDS011;3564;53.326;10.356;2022-09-25T05:18:12;28.93;;;16.60;;
7045;SDS011;3564;53.326;10.356;2022-09-25T05:20:46;32.70;;;16.43;;
7045;SDS011;3564;53.326;10.356;2022-09-25T05:23:12;34.30;;;16.67;;
7045;SDS011;3564;53.326;10.356;2022-09-25T05:25:38;32.63;;;17.33;;
7045;SDS011;3564;53.326;10.356;2022-09-25T05:28:03;33.80;;;17.00;;
7045;SDS011;3564;53.326;10.356;2022-09-25T05:30:31;33.37;;;17.47;;
7045;SDS011;3564;53.326;10.356;2022-09-25T05:32:59;32.00;;;16.93;;
7045;SDS011;3564;53.326;10.356;2022-09-25T05:35:26;33.03;;;17.87;;
7045;SDS011;3564;53.326;10.356;2022-09-25T05:37:53;37.33;;;18.80;;
7045;SDS011;3564;53.326;10.356;2022-09-25T05:40:19;33.93;;;17.43;;
7045;SDS011;3564;53.326;10.356;2022-09-25T05:42:47;35.40;;;17.57;;
7045;SDS011;3564;53.326;10.356;2022-09-25T05:45:14;32.07;;;16.90;;
7045;SDS011;3564;53.326;10.356;2022-09-25T05:47:40;33.87;;;17.60;;
7045;SDS011;3564;53.326;10.356;2022-09-25T05:50:06;46.13;;;28.10;;
7045;SDS011;3564;53.326;10.356;2022-09-25T05:52:34;36.13;;;19.23;;
7045;SDS011;3564;53.326;10.356;2022-09-25T05:55:01;31.50;;;16.43;;
7045;SDS011;3564;53.326;10.356;2022-09-25T05:57:30;33.47;;;17.40;;
7045;SDS011;3564;53.326;10.356;2022-09-25T05:59:57;31.33;;;16.03;;
7045;SDS011;3564;53.326;10.356;2022-09-25T06:02:23;27.87;;;16.23;;
7045;SDS011;3564;53.326;10.356;2022-09-25T06:04:49;31.43;;;15.77;;
7045;SDS011;3564;53.326;10.356;2022-09-25T06:07:15;27.73;;;15.20;;
7045;SDS011;3564;53.326;10.356;2022-09-25T06:09:40;27.63;;;14.87;;
7045;SDS011;3564;53.326;10.356;2022-09-25T06:12:06;23.90;;;14.87;;
7045;SDS011;3564;53.326;10.356;2022-09-25T06:14:31;25.20;;;14.77;;
7045;SDS011;3564;53.326;10.356;2022-09-25T06:16:59;23.13;;;13.57;;
7045;SDS011;3564;53.326;10.356;2022-09-25T06:19:25;24.50;;;14.20;;
7045;SDS011;3564;53.326;10.356;2022-09-25T06:21:53;26.90;;;14.93;;
7045;SDS011;3564;53.326;10.356;2022-09-25T06:24:19;22.63;;;13.53;;
7045;SDS011;3564;53.326;10.356;2022-09-25T06:26:45;22.53;;;14.20;;
7045;SDS011;3564;53.326;10.356;2022-09-25T06:29:11;23.57;;;13.27;;
7045;SDS011;3564;53.326;10.356;2022-09-25T06:31:37;24.20;;;13.47;;
7045;SDS011;3564;53.326;10.356;2022-09-25T06:34:03;21.83;;;12.80;;
7045;SDS011;3564;53.326;10.356;2022-09-25T06:36:29;23.37;;;14.00;;
7045;SDS011;3564;53.326;10.356;2022-09-25T06:38:56;19.87;;;12.57;;
7045;SDS011;3564;53.326;10.356;2022-09-25T06:41:22;19.53;;;12.07;;
7045;SDS011;3564;53.326;10.356;2022-09-25T06:43:49;21.47;;;12.83;;
7045;SDS011;3564;53.326;10.356;2022-09-25T06:46:14;21.90;;;13.20;;
7045;SDS011;3564;53.326;10.356;2022-09-25T06:48:42;21.03;;;12.73;;
7045;SDS011;3564;53.326;10.356;2022-09-25T06:51:08;19.97;;;12.63;;
7045;SDS011;3564;53.326;10.356;2022-09-25T06:53:33;19.10;;;12.97;;
7045;SDS011;3564;53.326;10.356;2022-09-25T06:55:59;18.33;;;12.57;;
7045;SDS011;3564;53.326;10.356;2022-09-25T06:58:26;21.00;;;12.50;;
7045;SDS011;3564;53.326;10.356;2022-09-25T07:00:54;18.00;;;11.80;;
7045;SDS011;3564;53.326;10.356;2022-09-25T07:03:21;19.13;;;12.63;;
7045;SDS011;3564;53.326;10.356;2022-09-25T07:06:07;19.37;;;12.97;;
7045;SDS011;3564;53.326;10.356;2022-09-25T07:08:34;19.90;;;11.77;;
7045;SDS011;3564;53.326;10.356;2022-09-25T07:11:00;22.03;;;12.10;;
7045;SDS011;3564;53.326;10.356;2022-09-25T07:13:27;19.17;;;12.30;;
7045;SDS011;3564;53.326;10.356;2022-09-25T07:16:07;19.50;;;12.97;;
7045;SDS011;3564;53.326;10.356;2022-09-25T07:18:36;19.83;;;12.60;;
7045;SDS011;3564;53.326;10.356;2022-09-25T07:21:23;18.03;;;11.67;;
7045;SDS011;3564;53.326;10.356;2022-09-25T07:23:50;18.17;;;11.53;;
7045;SDS011;3564;53.326;10.356;2022-09-25T07:26:20;16.50;;;11.33;;
7045;SDS011;3564;53.326;10.356;2022-09-25T07:28:51;18.43;;;12.27;;
7045;SDS011;3564;53.326;10.356;2022-09-25T07:31:21;18.13;;;12.37;;
7045;SDS011;3564;53.326;10.356;2022-09-25T07:33:49;18.17;;;12.13;;
7045;SDS011;3564;53.326;10.356;2022-09-25T07:36:16;17.50;;;12.10;;
7045;SDS011;3564;53.326;10.356;2022-09-25T07:38:41;18.17;;;11.37;;
7045;SDS011;3564;53.326;10.356;2022-09-25T07:41:10;18.17;;;11.70;;
7045;SDS011;3564;53.326;10.356;2022-09-25T07:43:37;18.67;;;11.63;;
7045;SDS011;3564;53.326;10.356;2022-09-25T07:46:02;17.67;;;11.50;;
7045;SDS011;3564;53.326;10.356;2022-09-25T07:48:29;20.33;;;11.93;;
7045;SDS011;3564;53.326;10.356;2022-09-25T07:51:05;15.80;;;11.20;;
7045;SDS011;3564;53.326;10.356;2022-09-25T07:53:41;17.93;;;11.40;;
7045;SDS011;3564;53.326;10.356;2022-09-25T07:56:08;16.40;;;11.70;;
7045;SDS011;3564;53.326;10.356;2022-09-25T07:58:34;16.97;;;11.63;;
7045;SDS011;3564;53.326;10.356;2022-09-25T08:01:00;17.27;;;11.33;;
7045;SDS011;3564;53.326;10.356;2022-09-25T08:03:27;16.50;;;11.77;;
7045;SDS011;3564;53.326;10.356;2022-09-25T08:05:56;26.60;;;20.03;;
7045;SDS011;3564;53.326;10.356;2022-09-25T08:08:23;19.30;;;13.23;;
7045;SDS011;3564;53.326;10.356;2022-09-25T08:10:49;17.87;;;11.63;;
7045;SDS011;3564;53.326;10.356;2022-09-25T08:13:15;16.60;;;11.20;;
7045;SDS011;3564;53.326;10.356;2022-09-25T08:15:44;14.00;;;9.87;;
7045;SDS011;3564;53.326;10.356;2022-09-25T08:18:10;14.73;;;10.63;;
7045;SDS011;3564;53.326;10.356;2022-09-25T08:20:35;14.97;;;10.47;;
7045;SDS011;3564;53.326;10.356;2022-09-25T08:23:04;17.40;;;10.77;;
7045;SDS011;3564;53.326;10.356;2022-09-25T08:25:31;19.07;;;11.57;;
7045;SDS011;3564;53.326;10.356;2022-09-25T08:27:57;14.17;;;10.07;;
7045;SDS011;3564;53.326;10.356;2022-09-25T08:30:22;14.90;;;10.70;;
7045;SDS011;3564;53.326;10.356;2022-09-25T08:32:48;14.50;;;10.23;;
7045;SDS011;3564;53.326;10.356;2022-09-25T08:35:17;13.43;;;10.23;;
7045;SDS011;3564;53.326;10.356;2022-09-25T08:37:43;14.17;;;9.80;;
7045;SDS011;3564;53.326;10.356;2022-09-25T08:40:19;13.53;;;10.27;;
7045;SDS011;3564;53.326;10.356;2022-09-25T08:42:50;13.70;;;9.80;;
7045;SDS011;3564;53.326;10.356;2022-09-25T08:45:34;12.90;;;9.53;;
7045;SDS011;3564;53.326;10.356;2022-09-25T08:48:23;11.80;;;9.37;;
7045;SDS011;3564;53.326;10.356;2022-09-25T08:51:17;12.33;;;9.87;;
7045;SDS011;3564;53.326;10.356;2022-09-25T08:53:42;12.37;;;9.13;;
7045;SDS011;3564;53.326;10.356;2022-09-25T08:56:13;11.93;;;8.87;;
7045;SDS011;3564;53.326;10.356;2022-09-25T09:01:39;11.33;;;8.43;;
7045;SDS011;3564;53.326;10.356;2022-09-25T09:04:12;10.67;;;8.40;;
7045;SDS011;3564;53.326;10.356;2022-09-25T09:07:02;10.63;;;8.30;;
7045;SDS011;3564;53.326;10.356;2022-09-25T09:10:06;9.83;;;8.30;;
7045;SDS011;3564;53.326;10.356;2022-09-25T09:15:03;11.07;;;8.27;;
7045;SDS011;3564;53.326;10.356;2022-09-25T09:17:41;10.40;;;8.23;;
7045;SDS011;3564;53.326;10.356;2022-09-25T09:23:07;11.03;;;9.23;;
7045;SDS011;3564;53.326;10.356;2022-09-25T09:29:05;11.63;;;9.93;;
7045;SDS011;3564;53.326;10.356;2022-09-25T09:31:32;13.33;;;10.10;;
7045;SDS011;3564;53.326;10.356;2022-09-25T09:34:32;13.23;;;9.53;;
7045;SDS011;3564;53.326;10.356;2022-09-25T09:37:27;14.83;;;10.07;;
7045;SDS011;3564;53.326;10.356;2022-09-25T09:43:40;13.83;;;10.57;;
7045;SDS011;3564;53.326;10.356;2022-09-25T09:51:32;13.73;;;10.43;;
7045;SDS011;3564;53.326;10.356;2022-09-25T09:54:05;14.03;;;11.10;;
7045;SDS011;3564;53.326;10.356;2022-09-25T09:56:48;12.87;;;11.10;;
7045;SDS011;3564;53.326;10.356;2022-09-25T09:59:20;12.13;;;10.17;;
7045;SDS011;3564;53.326;10.356;2022-09-25T10:02:00;14.43;;;11.20;;
7045;SDS011;3564;53.326;10.356;2022-09-25T10:04:34;12.53;;;10.10;;
7045;SDS011;3564;53.326;10.356;2022-09-25T10:07:03;12.37;;;10.37;;
7045;SDS011;3564;53.326;10.356;2022-09-25T10:09:33;12.87;;;10.83;;
7045;SDS011;3564;53.326;10.356;2022-09-25T10:14:52;11.20;;;9.50;;
7045;SDS011;3564;53.326;10.356;2022-09-25T10:17:19;11.83;;;9.93;;
7045;SDS011;3564;53.326;10.356;2022-09-25T10:19:52;13.37;;;11.20;;
7045;SDS011;3564;53.326;10.356;2022-09-25T10:22:21;12.83;;;11.03;;
7045;SDS011;3564;53.326;10.356;2022-09-25T10:35:51;12.33;;;10.20;;
7045;SDS011;3564;53.326;10.356;2022-09-25T10:38:23;13.13;;;11.73;;
7045;SDS011;3564;53.326;10.356;2022-09-25T10:41:06;11.90;;;10.30;;
7045;SDS011;3564;53.326;10.356;2022-09-25T10:43:50;11.50;;;9.83;;
7045;SDS011;3564;53.326;10.356;2022-09-25T10:49:18;7.30;;;6.53;;
7045;SDS011;3564;53.326;10.356;2022-09-25T10:52:04;3.90;;;3.60;;
7045;SDS011;3564;53.326;10.356;2022-09-25T10:54:31;3.03;;;2.83;;
7045;SDS011;3564;53.326;10.356;2022-09-25T10:56:57;4.23;;;3.83;;
7045;SDS011;3564;53.326;10.356;2022-09-25T10:59:23;3.40;;;3.13;;
7045;SDS011;3564;53.326;10.356;2022-09-25T11:01:50;3.33;;;3.03;;
7045;SDS011;3564;53.326;10.356;2022-09-25T11:06:54;3.80;;;3.40;;
7045;SDS011;3564;53.326;10.356;2022-09-25T11:09:26;4.07;;;3.00;;
7045;SDS011;3564;53.326;10.356;2022-09-25T11:12:20;3.23;;;2.93;;
7045;SDS011;3564;53.326;10.356;2022-09-25T11:14:55;2.67;;;2.47;;
7045;SDS011;3564;53.326;10.356;2022-09-25T11:17:39;2.83;;;2.63;;
7045;SDS011;3564;53.326;10.356;2022-09-25T11:20:26;2.73;;;2.53;;
7045;SDS011;3564;53.326;10.356;2022-09-25T11:23:16;3.40;;;3.10;;
7045;SDS011;3564;53.326;10.356;2022-09-25T11:29:25;4.23;;;3.83;;
7045;SDS011;3564;53.326;10.356;2022-09-25T11:31:28;4.00;;;3.70;;
7045;SDS011;3564;53.326;10.356;2022-09-25T11:37:48;4.60;;;4.20;;
7045;SDS011;3564;53.326;10.356;2022-09-25T11:39:55;4.70;;;4.23;;
7045;SDS011;3564;53.326;10.356;2022-09-25T11:42:57;5.33;;;4.63;;
7045;SDS011;3564;53.326;10.356;2022-09-25T11:45:31;4.70;;;4.30;;
7045;SDS011;3564;53.326;10.356;2022-09-25T11:51:04;6.03;;;5.43;;
7045;SDS011;3564;53.326;10.356;2022-09-25T12:12:52;6.40;;;5.80;;
7045;SDS011;3564;53.326;10.356;2022-09-25T12:16:01;6.37;;;5.77;;
7045;SDS011;3564;53.326;10.356;2022-09-25T12:21:25;5.80;;;5.30;;
7045;SDS011;3564;53.326;10.356;2022-09-25T12:24:09;5.57;;;4.77;;
7045;SDS011;3564;53.326;10.356;2022-09-25T12:27:20;6.03;;;4.20;;
7045;SDS011;3564;53.326;10.356;2022-09-25T12:33:29;6.23;;;4.80;;
7045;SDS011;3564;53.326;10.356;2022-09-25T12:38:40;6.27;;;4.50;;
7045;SDS011;3564;53.326;10.356;2022-09-25T12:44:20;4.83;;;3.30;;
7045;SDS011;3564;53.326;10.356;2022-09-25T12:49:59;5.87;;;3.40;;
7045;SDS011;3564;53.326;10.356;2022-09-25T12:52:40;5.33;;;3.73;;
7045;SDS011;3564;53.326;10.356;2022-09-25T13:00:51;5.20;;;3.73;;
7045;SDS011;3564;53.326;10.356;2022-09-25T13:03:37;5.33;;;3.90;;
7045;SDS011;3564;53.326;10.356;2022-09-25T13:06:27;5.30;;;3.90;;
7045;SDS011;3564;53.326;10.356;2022-09-25T13:09:14;3.90;;;3.50;;
7045;SDS011;3564;53.326;10.356;2022-09-25T13:11:51;5.33;;;4.47;;
7045;SDS011;3564;53.326;10.356;2022-09-25T13:17:08;6.07;;;3.50;;
7045;SDS011;3564;53.326;10.356;2022-09-25T13:19:36;4.57;;;3.30;;
7045;SDS011;3564;53.326;10.356;2022-09-25T13:22:03;7.93;;;5.73;;
7045;SDS011;3564;53.326;10.356;2022-09-25T13:24:35;16.23;;;10.27;;
7045;SDS011;3564;53.326;10.356;2022-09-25T13:27:03;12.27;;;8.67;;
7045;SDS011;3564;53.326;10.356;2022-09-25T13:29:32;4.37;;;2.90;;
7045;SDS011;3564;53.326;10.356;2022-09-25T13:34:28;5.50;;;2.87;;
7045;SDS011;3564;53.326;10.356;2022-09-25T13:37:02;3.40;;;2.70;;
7045;SDS011;3564;53.326;10.356;2022-09-25T13:39:31;8.80;;;2.70;;
7045;SDS011;3564;53.326;10.356;2022-09-25T13:42:20;6.70;;;2.80;;
7045;SDS011;3564;53.326;10.356;2022-09-25T13:45:35;4.60;;;3.03;;
7045;SDS011;3564;53.326;10.356;2022-09-25T13:47:42;6.37;;;3.30;;
7045;SDS011;3564;53.326;10.356;2022-09-25T13:55:40;7.37;;;2.87;;
7045;SDS011;3564;53.326;10.356;2022-09-25T14:00:50;5.50;;;2.87;;
7045;SDS011;3564;53.326;10.356;2022-09-25T14:03:35;4.73;;;3.40;;
7045;SDS011;3564;53.326;10.356;2022-09-25T14:08:59;4.57;;;2.53;;
7045;SDS011;3564;53.326;10.356;2022-09-25T14:11:32;5.93;;;3.53;;
7045;SDS011;3564;53.326;10.356;2022-09-25T14:14:04;6.00;;;3.10;;
7045;SDS011;3564;53.326;10.356;2022-09-25T14:19:16;4.40;;;2.27;;
7045;SDS011;3564;53.326;10.356;2022-09-25T14:21:45;3.50;;;2.20;;
7045;SDS011;3564;53.326;10.356;2022-09-25T14:24:20;3.30;;;2.20;;
7045;SDS011;3564;53.326;10.356;2022-09-25T14:26:50;2.77;;;2.13;;
7045;SDS011;3564;53.326;10.356;2022-09-25T14:29:18;2.60;;;2.30;;
7045;SDS011;3564;53.326;10.356;2022-09-25T14:37:30;3.93;;;2.40;;
7045;SDS011;3564;53.326;10.356;2022-09-25T14:42:41;3.73;;;1.67;;
7045;SDS011;3564;53.326;10.356;2022-09-25T14:48:09;3.00;;;1.77;;
7045;SDS011;3564;53.326;10.356;2022-09-25T14:50:47;5.73;;;2.30;;
7045;SDS011;3564;53.326;10.356;2022-09-25T14:53:20;5.60;;;2.23;;
7045;SDS011;3564;53.326;10.356;2022-09-25T14:55:53;2.67;;;2.17;;
7045;SDS011;3564;53.326;10.356;2022-09-25T14:58:22;5.20;;;2.50;;
7045;SDS011;3564;53.326;10.356;2022-09-25T15:00:52;7.77;;;2.90;;
7045;SDS011;3564;53.326;10.356;2022-09-25T15:03:26;4.60;;;2.40;;
7045;SDS011;3564;53.326;10.356;2022-09-25T15:05:58;3.93;;;2.10;;
7045;SDS011;3564;53.326;10.356;2022-09-25T15:08:32;3.73;;;1.87;;
7045;SDS011;3564;53.326;10.356;2022-09-25T15:11:13;3.13;;;1.50;;
7045;SDS011;3564;53.326;10.356;2022-09-25T15:13:41;4.57;;;1.57;;
7045;SDS011;3564;53.326;10.356;2022-09-25T15:16:12;4.97;;;1.93;;
7045;SDS011;3564;53.326;10.356;2022-09-25T15:19:05;5.27;;;2.20;;
7045;SDS011;3564;53.326;10.356;2022-09-25T15:21:38;2.73;;;1.80;;
7045;SDS011;3564;53.326;10.356;2022-09-25T15:24:10;4.77;;;1.50;;
7045;SDS011;3564;53.326;10.356;2022-09-25T15:26:50;1.87;;;1.70;;
7045;SDS011;3564;53.326;10.356;2022-09-25T15:29:27;4.40;;;1.50;;
7045;SDS011;3564;53.326;10.356;2022-09-25T15:31:59;2.83;;;1.70;;
7045;SDS011;3564;53.326;10.356;2022-09-25T15:34:25;3.77;;;1.50;;
7045;SDS011;3564;53.326;10.356;2022-09-25T15:36:54;3.77;;;1.50;;
7045;SDS011;3564;53.326;10.356;2022-09-25T15:39:53;3.57;;;1.60;;
7045;SDS011;3564;53.326;10.356;2022-09-25T15:42:20;2.50;;;1.60;;
7045;SDS011;3564;53.326;10.356;2022-09-25T15:44:46;4.57;;;2.13;;
7045;SDS011;3564;53.326;10.356;2022-09-25T15:47:47;2.50;;;1.60;;
7045;SDS011;3564;53.326;10.356;2022-09-25T15:50:04;5.67;;;1.80;;
7045;SDS011;3564;53.326;10.356;2022-09-25T15:52:41;3.80;;;1.60;;
7045;SDS011;3564;53.326;10.356;2022-09-25T15:55:11;4.57;;;2.13;;
7045;SDS011;3564;53.326;10.356;2022-09-25T15:57:38;2.40;;;1.50;;
7045;SDS011;3564;53.326;10.356;2022-09-25T16:00:06;2.70;;;1.67;;
7045;SDS011;3564;53.326;10.356;2022-09-25T16:03:23;5.13;;;2.30;;
7045;SDS011;3564;53.326;10.356;2022-09-25T16:06:13;7.70;;;1.93;;
7045;SDS011;3564;53.326;10.356;2022-09-25T16:08:41;4.10;;;1.60;;
7045;SDS011;3564;53.326;10.356;2022-09-25T16:13:33;4.83;;;1.77;;
7045;SDS011;3564;53.326;10.356;2022-09-25T16:16:03;5.60;;;1.87;;
7045;SDS011;3564;53.326;10.356;2022-09-25T16:18:41;4.97;;;2.10;;
7045;SDS011;3564;53.326;10.356;2022-09-25T16:23:49;4.90;;;2.27;;
7045;SDS011;3564;53.326;10.356;2022-09-25T16:26:17;4.90;;;2.07;;
7045;SDS011;3564;53.326;10.356;2022-09-25T16:28:57;3.30;;;1.80;;
7045;SDS011;3564;53.326;10.356;2022-09-25T16:31:27;6.80;;;2.10;;
7045;SDS011;3564;53.326;10.356;2022-09-25T16:33:53;3.43;;;2.00;;
7045;SDS011;3564;53.326;10.356;2022-09-25T16:36:21;3.53;;;2.03;;
7045;SDS011;3564;53.326;10.356;2022-09-25T16:41:33;4.80;;;2.77;;
7045;SDS011;3564;53.326;10.356;2022-09-25T16:46:42;5.40;;;3.97;;
7045;SDS011;3564;53.326;10.356;2022-09-25T16:49:09;5.40;;;2.57;;
7045;SDS011;3564;53.326;10.356;2022-09-25T16:51:41;4.30;;;1.83;;
7045;SDS011;3564;53.326;10.356;2022-09-25T16:54:10;4.63;;;2.27;;
7045;SDS011;3564;53.326;10.356;2022-09-25T16:56:39;2.27;;;1.80;;
7045;SDS011;3564;53.326;10.356;2022-09-25T16:59:20;4.23;;;2.00;;
7045;SDS011;3564;53.326;10.356;2022-09-25T17:01:49;4.57;;;1.60;;
7045;SDS011;3564;53.326;10.356;2022-09-25T17:04:21;6.33;;;1.87;;
7045;SDS011;3564;53.326;10.356;2022-09-25T17:06:48;3.47;;;2.03;;
7045;SDS011;3564;53.326;10.356;2022-09-25T17:09:15;5.63;;;2.70;;
7045;SDS011;3564;53.326;10.356;2022-09-25T17:11:42;7.53;;;2.67;;
7045;SDS011;3564;53.326;10.356;2022-09-25T17:14:21;6.53;;;2.07;;
7045;SDS011;3564;53.326;10.356;2022-09-25T17:16:49;2.93;;;2.10;;
7045;SDS011;3564;53.326;10.356;2022-09-25T17:19:15;4.13;;;2.13;;
7045;SDS011;3564;53.326;10.356;2022-09-25T17:21:47;4.37;;;2.40;;
7045;SDS011;3564;53.326;10.356;2022-09-25T17:24:28;5.13;;;2.03;;
7045;SDS011;3564;53.326;10.356;2022-09-25T17:26:54;5.10;;;1.70;;
7045;SDS011;3564;53.326;10.356;2022-09-25T17:29:23;5.40;;;2.00;;
7045;SDS011;3564;53.326;10.356;2022-09-25T17:31:48;6.53;;;2.00;;
7045;SDS011;3564;53.326;10.356;2022-09-25T17:34:18;5.20;;;1.90;;
7045;SDS011;3564;53.326;10.356;2022-09-25T17:36:52;4.10;;;2.07;;
7045;SDS011;3564;53.326;10.356;2022-09-25T17:39:18;5.30;;;1.93;;
7045;SDS011;3564;53.326;10.356;2022-09-25T17:41:44;3.13;;;2.00;;
7045;SDS011;3564;53.326;10.356;2022-09-25T17:44:11;3.67;;;1.93;;
7045;SDS011;3564;53.326;10.356;2022-09-25T17:46:50;3.67;;;2.10;;
7045;SDS011;3564;53.326;10.356;2022-09-25T17:49:18;5.67;;;2.20;;
7045;SDS011;3564;53.326;10.356;2022-09-25T17:51:50;3.57;;;2.13;;
7045;SDS011;3564;53.326;10.356;2022-09-25T17:54:16;3.07;;;1.70;;
7045;SDS011;3564;53.326;10.356;2022-09-25T17:56:42;3.27;;;1.70;;
7045;SDS011;3564;53.326;10.356;2022-09-25T17:59:10;3.83;;;2.10;;